Time;durP1;ratioP1;P1;durP2;ratioP2;P2;SDS_P1;SDS_P2;PMS_P1;PMS_P2;Temp;Humidity;BMP_temperature;BMP_pressure;BME280_temperature;BME280_humidity;BME280_pressure;Samples;Min_cycle;Max_cycle;Signal;HPM_P1;HPM_P2
2022/05/05 00:02:16;;;;;;;;;;;;;;;26.41;38.70;94371.28;4933016;29;8719;-64
2022/05/05 00:04:42;;;;;;;;;;;;;;;26.40;39.14;94359.53;4912404;29;7295;-64
2022/05/05 00:07:08;;;;;;;;;;;;;;;26.38;38.96;94364.81;4920754;29;9521;-63
2022/05/05 00:09:44;;;;;;;;;;;;;;;26.37;39.14;94354.28;4909741;29;7327;-64
2022/05/05 00:14:55;;;;;;;;;;;;;;;26.36;38.59;94359.06;4929976;29;8494;-63
2022/05/05 00:17:22;;;;;;;;;;;;;;;26.35;38.82;94365.84;4927747;29;9053;-64
2022/05/05 00:19:48;;;;;;;;;;;;;;;26.37;38.56;94357.06;4927575;29;9391;-64
2022/05/05 00:22:16;;;;;;;;;;;;;;;26.33;38.68;94364.88;4928268;29;9038;-64
2022/05/05 00:24:42;;;;;;;;;;;;;;;26.31;38.88;94361.88;4927412;29;8205;-64
2022/05/05 00:27:08;;;;;;;;;;;;;;;26.30;38.47;94358.38;4956694;28;9321;-64
2022/05/05 00:29:36;;;;;;;;;;;;;;;26.27;38.85;94351.16;4964111;28;7826;-64
2022/05/05 00:32:03;;;;;;;;;;;;;;;26.31;39.31;94361.88;4949258;28;7393;-64
2022/05/05 00:34:31;;;;;;;;;;;;;;;26.30;38.53;94349.34;4950361;28;9075;-64
2022/05/05 00:37:32;;;;;;;;;;;;;;;26.32;38.66;94357.88;4957526;28;9569;-64
2022/05/05 00:40:48;;;;;;;;;;;;;;;26.32;38.33;94357.88;4961744;28;9887;-64
2022/05/05 00:43:24;;;;;;;;;;;;;;;26.32;38.53;94352.34;4922936;29;9058;-64
2022/05/05 00:45:58;;;;;;;;;;;;;;;26.31;38.85;94356.38;4929145;29;7458;-64
2022/05/05 00:48:26;;;;;;;;;;;;;;;26.31;39.12;94361.88;4929076;29;9307;-64
2022/05/05 00:50:55;;;;;;;;;;;;;;;26.30;38.54;94366.63;4913741;29;9465;-63
2022/05/05 00:53:42;;;;;;;;;;;;;;;26.30;38.18;94355.63;4928976;29;8434;-64
2022/05/05 00:56:49;;;;;;;;;;;;;;;26.29;39.13;94358.91;4927713;29;9399;-63
2022/05/05 00:59:28;;;;;;;;;;;;;;;26.28;38.60;94363.66;4928301;29;7978;-64
2022/05/05 01:01:54;;;;;;;;;;;;;;;26.29;39.00;94358.91;4923794;29;7281;-64
2022/05/05 01:04:25;;;;;;;;;;;;;;;26.28;38.08;94357.38;4925822;29;7274;-64
2022/05/05 01:07:11;;;;;;;;;;;;;;;26.28;38.22;94346.34;4928668;29;9425;-64
2022/05/05 01:09:38;;;;;;;;;;;;;;;26.28;38.06;94351.88;4907510;29;8707;-63
2022/05/05 01:12:05;;;;;;;;;;;;;;;26.27;38.59;94358.66;4924734;29;7119;-64
2022/05/05 01:14:34;;;;;;;;;;;;;;;26.27;38.91;94355.91;4913775;29;9087;-64
2022/05/05 01:17:00;;;;;;;;;;;;;;;26.25;38.18;94363.94;4924056;29;7223;-63
2022/05/05 01:19:26;;;;;;;;;;;;;;;26.26;38.69;94363.44;4930696;28;7339;-64
2022/05/05 01:21:58;;;;;;;;;;;;;;;26.26;38.07;94362.69;4949623;28;9427;-64
2022/05/05 01:29:58;;;;;;;;;;;;;;;26.21;38.41;94358.69;4946407;28;7329;-63
2022/05/05 01:32:35;;;;;;;;;;;;;;;26.22;38.48;94362.97;4962503;28;9582;-64
2022/05/05 01:35:02;;;;;;;;;;;;;;;26.21;38.70;94361.47;4942129;28;9179;-63
2022/05/05 01:37:29;;;;;;;;;;;;;;;26.23;38.30;94369.22;4951804;28;7285;-64
2022/05/05 01:39:56;;;;;;;;;;;;;;;26.21;38.50;94360.72;4935334;28;7214;-64
2022/05/05 01:42:27;;;;;;;;;;;;;;;26.22;38.68;94362.22;4950133;28;9534;-64
2022/05/05 01:45:00;;;;;;;;;;;;;;;26.23;37.94;94366.47;4949632;28;8003;-64
2022/05/05 01:47:32;;;;;;;;;;;;;;;26.18;38.05;94370.78;4947977;28;7529;-64
2022/05/05 01:50:03;;;;;;;;;;;;;;;26.20;38.07;94371.00;4955404;28;7337;-63
2022/05/05 01:52:31;;;;;;;;;;;;;;;26.22;38.73;94373.25;4945885;28;9454;-64
2022/05/05 01:54:57;;;;;;;;;;;;;;;26.20;38.98;94375.78;4948820;28;7063;-64
2022/05/05 01:57:25;;;;;;;;;;;;;;;26.21;38.87;94369.00;4946077;28;9085;-64
2022/05/05 01:59:52;;;;;;;;;;;;;;;26.21;38.97;94374.53;4947353;28;9608;-63
2022/05/05 02:02:22;;;;;;;;;;;;;;;26.20;38.56;94364.75;4948641;28;8894;-64
2022/05/05 02:04:50;;;;;;;;;;;;;;;26.19;38.10;94372.25;4953136;28;7578;-63
2022/05/05 02:07:24;;;;;;;;;;;;;;;26.20;38.33;94370.25;4951324;28;7223;-64
2022/05/05 02:09:51;;;;;;;;;;;;;;;26.17;38.81;94364.50;4952948;28;8680;-64
2022/05/05 02:12:18;;;;;;;;;;;;;;;26.16;38.84;94371.28;4951892;28;8168;-63
2022/05/05 02:14:44;;;;;;;;;;;;;;;26.19;38.61;94369.50;4963008;28;7503;-64
2022/05/05 02:17:21;;;;;;;;;;;;;;;26.17;38.44;94367.28;4950574;28;7377;-64
2022/05/05 02:19:53;;;;;;;;;;;;;;;26.16;38.53;94368.50;4946950;28;7249;-64
2022/05/05 02:22:19;;;;;;;;;;;;;;;26.16;38.69;94370.53;4950142;28;9416;-64
2022/05/05 02:24:45;;;;;;;;;;;;;;;26.14;38.09;94371.03;4951582;28;8202;-64
2022/05/05 02:27:18;;;;;;;;;;;;;;;26.13;38.75;94361.28;4947709;29;9153;-64
2022/05/05 02:30:04;;;;;;;;;;;;;;;26.11;38.52;94358.31;4952593;28;7366;-64
2022/05/05 02:32:29;;;;;;;;;;;;;;;26.13;38.14;94358.53;4965222;28;8062;-64
2022/05/05 02:34:56;;;;;;;;;;;;;;;26.12;38.85;94357.03;4952191;28;9470;-64
2022/05/05 02:40:09;;;;;;;;;;;;;;;26.11;38.18;94350.03;4949467;28;9115;-64
2022/05/05 02:42:46;;;;;;;;;;;;;;;26.10;38.67;94351.28;4951653;28;9180;-64
2022/05/05 02:45:12;;;;;;;;;;;;;;;26.08;38.80;94356.56;4946182;29;8606;-64
2022/05/05 02:47:41;;;;;;;;;;;;;;;26.09;38.31;94358.06;4939882;28;7902;-64
2022/05/05 02:50:11;;;;;;;;;;;;;;;26.09;38.74;94355.31;4950227;28;9455;-64
2022/05/05 02:52:38;;;;;;;;;;;;;;;26.05;38.50;94352.06;4959921;28;7049;-64
2022/05/05 02:55:05;;;;;;;;;;;;;;;26.08;38.34;94353.81;4944849;29;10057;-64
2022/05/05 02:57:32;;;;;;;;;;;;;;;26.08;38.70;94350.28;4949661;28;9177;-64
2022/05/05 02:59:58;;;;;;;;;;;;;;;26.07;38.81;94352.31;4967624;28;9010;-64
2022/05/05 03:02:24;;;;;;;;;;;;;;;26.07;38.79;94352.31;4941386;28;8135;-64
2022/05/05 03:04:51;;;;;;;;;;;;;;;26.06;38.66;94347.28;4950324;28;7423;-64
2022/05/05 03:07:17;;;;;;;;;;;;;;;26.04;38.90;94339.53;4960009;28;9042;-64
2022/05/05 03:09:52;;;;;;;;;;;;;;;26.05;38.88;94341.06;4966632;28;10024;-64
2022/05/05 03:12:19;;;;;;;;;;;;;;;26.05;38.13;94335.53;4950393;28;8420;-64
2022/05/05 03:15:10;;;;;;;;;;;;;;;26.06;38.18;94342.53;4954703;28;7007;-64
2022/05/05 03:17:40;;;;;;;;;;;;;;;26.05;38.95;94338.28;4965049;28;8852;-64
2022/05/05 03:20:16;;;;;;;;;;;;;;;26.03;38.89;94338.03;4948033;28;7352;-64
2022/05/05 03:22:42;;;;;;;;;;;;;;;26.04;38.46;94339.53;4961424;28;7493;-64
2022/05/05 03:25:08;;;;;;;;;;;;;;;26.04;38.74;94349.81;4948868;29;7305;-64
2022/05/05 03:27:39;;;;;;;;;;;;;;;26.02;38.54;94344.81;4954491;28;7640;-64
2022/05/05 03:30:09;;;;;;;;;;;;;;;26.05;38.32;94340.28;4965596;28;7222;-64
2022/05/05 03:32:35;;;;;;;;;;;;;;;26.02;38.50;94341.31;4968123;28;7417;-65
2022/05/05 03:35:02;;;;;;;;;;;;;;;26.03;38.18;94338.03;4953988;28;9079;-64
2022/05/05 03:37:38;;;;;;;;;;;;;;;26.02;38.59;94335.81;4944553;28;9445;-64
2022/05/05 03:40:05;;;;;;;;;;;;;;;26.01;38.30;94337.81;4950717;28;9437;-64
2022/05/05 03:42:43;;;;;;;;;;;;;;;26.01;38.63;94337.81;4953218;28;7187;-64
2022/05/05 03:45:11;;;;;;;;;;;;;;;26.00;39.03;94339.09;4951799;28;7069;-64
2022/05/05 03:47:37;;;;;;;;;;;;;;;26.00;38.62;94330.81;4949958;28;7429;-64
2022/05/05 03:50:03;;;;;;;;;;;;;;;26.01;38.61;94339.84;4950606;28;7273;-64
2022/05/05 03:52:29;;;;;;;;;;;;;;;25.99;38.56;94337.56;4968169;28;7051;-64
2022/05/05 03:54:55;;;;;;;;;;;;;;;25.99;38.95;94332.06;4956789;28;7318;-64
2022/05/05 03:57:21;;;;;;;;;;;;;;;26.00;38.09;94336.31;4937274;28;8341;-64
2022/05/05 03:59:48;;;;;;;;;;;;;;;26.00;38.67;94339.09;4949960;28;7378;-64
2022/05/05 04:02:14;;;;;;;;;;;;;;;25.99;38.01;94329.31;4937554;28;9568;-64
2022/05/05 04:04:40;;;;;;;;;;;;;;;26.00;38.79;94341.84;4965143;28;9357;-64
2022/05/05 04:07:06;;;;;;;;;;;;;;;26.00;38.36;94355.63;4947848;28;7198;-64
2022/05/05 04:09:32;;;;;;;;;;;;;;;25.98;38.17;94358.13;4949084;28;7516;-64
2022/05/05 04:11:58;;;;;;;;;;;;;;;25.97;38.22;94351.13;4948494;28;7493;-64
2022/05/05 04:14:29;;;;;;;;;;;;;;;25.98;37.90;94354.63;4967330;28;7266;-64
2022/05/05 04:16:56;;;;;;;;;;;;;;;25.98;38.31;94355.38;4969809;28;9063;-64
2022/05/05 04:19:51;;;;;;;;;;;;;;;25.97;38.09;94351.13;4968808;28;8051;-64
2022/05/05 04:22:17;;;;;;;;;;;;;;;25.97;37.97;94356.63;4932874;29;7280;-63
2022/05/05 04:24:45;;;;;;;;;;;;;;;25.95;38.73;94348.13;4916701;29;7308;-63
2022/05/05 04:27:14;;;;;;;;;;;;;;;25.94;38.31;94357.69;4926362;29;9059;-63
2022/05/05 04:30:16;;;;;;;;;;;;;;;25.95;38.17;94370.19;4916348;29;7278;-63
2022/05/05 04:32:54;;;;;;;;;;;;;;;25.94;38.58;94374.22;4875571;29;7530;-63
2022/05/05 04:35:31;;;;;;;;;;;;;;;25.93;38.56;94366.44;4859894;29;9508;-64
2022/05/05 04:38:06;;;;;;;;;;;;;;;25.91;38.77;94361.44;4860768;29;9772;-63
2022/05/05 04:40:33;;;;;;;;;;;;;;;25.91;37.99;94366.97;4869244;29;8965;-63
2022/05/05 04:43:45;;;;;;;;;;;;;;;25.91;37.90;94366.22;4876165;29;7232;-63
2022/05/05 04:46:12;;;;;;;;;;;;;;;25.89;39.37;94361.22;4836256;29;9231;-64
2022/05/05 04:48:38;;;;;;;;;;;;;;;25.91;39.32;94360.69;4840393;29;9345;-64
2022/05/05 04:51:06;;;;;;;;;;;;;;;25.91;39.23;94364.22;4853707;29;7581;-64
2022/05/05 04:53:41;;;;;;;;;;;;;;;25.91;38.94;94355.94;4840952;29;9404;-64
2022/05/05 04:56:16;;;;;;;;;;;;;;;25.93;40.40;94360.94;4838260;29;7593;-64
2022/05/05 04:58:57;;;;;;;;;;;;;;;25.92;40.78;94353.94;4849013;29;9110;-64
2022/05/05 05:01:33;;;;;;;;;;;;;;;25.85;39.83;94355.25;4889139;29;9396;-64
2022/05/05 05:04:02;;;;;;;;;;;;;;;25.81;39.55;94354.78;4890416;29;7376;-64
2022/05/05 05:06:29;;;;;;;;;;;;;;;25.80;39.03;94356.03;4887393;29;7248;-64
2022/05/05 05:08:55;;;;;;;;;;;;;;;25.80;38.99;94352.53;4906182;29;9564;-63
2022/05/05 05:11:23;;;;;;;;;;;;;;;25.79;38.79;94360.06;4910543;29;7847;-63
2022/05/05 05:13:49;;;;;;;;;;;;;;;25.81;38.13;94368.56;4913518;29;7074;-63
2022/05/05 05:16:15;;;;;;;;;;;;;;;25.84;38.62;94358.50;4916421;29;9190;-63
2022/05/05 05:18:47;;;;;;;;;;;;;;;25.84;38.72;94364.00;4912178;29;6953;-64
2022/05/05 05:21:15;;;;;;;;;;;;;;;25.86;38.79;94356.72;4915102;29;8843;-63
2022/05/05 05:23:41;;;;;;;;;;;;;;;25.88;41.66;94365.22;4940676;28;9031;-63
2022/05/05 05:26:07;;;;;;;;;;;;;;;25.91;39.18;94364.22;4935999;28;7034;-62
2022/05/05 05:28:34;;;;;;;;;;;;;;;25.91;39.12;94366.97;4966230;28;7276;-63
2022/05/05 05:31:05;;;;;;;;;;;;;;;25.91;38.63;94364.22;4950982;28;7242;-63
2022/05/05 05:33:31;;;;;;;;;;;;;;;25.92;38.00;94368.47;4949086;28;9076;-63
2022/05/05 05:36:11;;;;;;;;;;;;;;;25.93;38.42;94367.19;4941663;28;7038;-63
2022/05/05 05:38:37;;;;;;;;;;;;;;;25.95;38.70;94375.69;4963577;28;7194;-63
2022/05/05 05:41:13;;;;;;;;;;;;;;;25.94;37.97;94385.25;4950809;28;7074;-63
2022/05/05 05:44:01;;;;;;;;;;;;;;;25.95;37.86;94383.22;4956269;28;7485;-63
2022/05/05 05:46:34;;;;;;;;;;;;;;;25.94;38.29;94378.97;4966397;28;7115;-63
2022/05/05 05:49:00;;;;;;;;;;;;;;;25.92;38.71;94375.97;4948937;28;7423;-63
2022/05/05 05:51:34;;;;;;;;;;;;;;;25.96;38.41;94385.47;4952020;28;9094;-63
2022/05/05 05:54:00;;;;;;;;;;;;;;;25.95;38.64;94392.22;4952043;28;6988;-63
2022/05/05 05:56:26;;;;;;;;;;;;;;;25.99;38.16;94386.47;4948181;28;7469;-64
2022/05/05 05:58:52;;;;;;;;;;;;;;;26.00;37.77;94387.94;4950935;28;8786;-64
2022/05/05 06:04:20;;;;;;;;;;;;;;;26.01;38.26;94387.41;4949837;28;7172;-64
2022/05/05 06:06:52;;;;;;;;;;;;;;;26.06;37.62;94392.13;4959770;28;7767;-64
2022/05/05 06:09:20;;;;;;;;;;;;;;;26.12;38.21;94392.88;4943994;28;9137;-64
2022/05/05 06:11:47;;;;;;;;;;;;;;;26.21;38.36;94391.06;4935482;28;9476;-64
2022/05/05 06:14:19;;;;;;;;;;;;;;;26.27;38.59;94387.00;4944919;28;8665;-64
2022/05/05 06:16:48;;;;;;;;;;;;;;;26.37;37.83;94395.66;4946540;28;7194;-64
2022/05/05 06:19:38;;;;;;;;;;;;;;;26.44;37.75;94404.13;4947339;28;7315;-64
2022/05/05 06:22:04;;;;;;;;;;;;;;;26.48;37.96;94403.81;4966587;28;7055;-65
2022/05/05 06:24:32;;;;;;;;;;;;;;;26.51;38.43;94402.81;4946193;28;9334;-64
2022/05/05 06:26:58;;;;;;;;;;;;;;;26.56;37.88;94405.50;4944232;28;7251;-64
2022/05/05 06:29:25;;;;;;;;;;;;;;;26.56;37.51;94402.00;4947333;28;7100;-64
2022/05/05 06:31:51;;;;;;;;;;;;;;;26.63;37.17;94404.19;4946714;29;9126;-64
2022/05/05 06:34:18;;;;;;;;;;;;;;;26.65;37.30;94399.63;4943130;29;7655;-64
2022/05/05 06:36:49;;;;;;;;;;;;;;;26.67;37.99;94399.88;4943386;29;7090;-64
2022/05/05 06:39:15;;;;;;;;;;;;;;;26.70;37.89;94393.31;4946291;28;9062;-64
2022/05/05 06:41:41;;;;;;;;;;;;;;;26.76;38.10;94396.03;4945805;29;8737;-64
2022/05/05 06:44:07;;;;;;;;;;;;;;;26.77;37.99;94394.78;4946541;29;7070;-64
2022/05/05 06:46:36;;;;;;;;;;;;;;;26.79;37.09;94395.78;4960482;28;7226;-64
2022/05/05 06:49:05;;;;;;;;;;;;;;;26.84;37.05;94394.19;4946368;28;9202;-64
2022/05/05 06:51:33;;;;;;;;;;;;;;;26.84;37.33;94396.94;4945536;28;9133;-64
2022/05/05 06:54:00;;;;;;;;;;;;;;;26.87;37.41;94393.16;4947777;29;9030;-64
2022/05/05 06:56:51;;;;;;;;;;;;;;;26.89;37.99;94394.13;4942375;29;9452;-64
2022/05/05 06:59:24;;;;;;;;;;;;;;;26.91;37.31;94393.63;4968493;28;7192;-64
2022/05/05 07:02:04;;;;;;;;;;;;;;;26.93;36.88;94404.88;4964592;28;9309;-64
2022/05/05 07:07:59;;;;;;;;;;;;;;;26.92;37.76;94411.69;4946217;28;7263;-64
2022/05/05 07:13:39;;;;;;;;;;;;;;;26.90;37.45;94409.41;4920102;28;8931;-64
2022/05/05 07:16:07;;;;;;;;;;;;;;;26.88;37.73;94402.94;4918357;29;7280;-64
2022/05/05 07:18:43;;;;;;;;;;;;;;;26.90;37.39;94412.19;4903504;29;7030;-64
2022/05/05 07:21:09;;;;;;;;;;;;;;;26.88;37.31;94414.00;4927254;29;7257;-64
2022/05/05 07:23:38;;;;;;;;;;;;;;;26.85;37.28;94409.50;4922490;29;7112;-64
2022/05/05 07:26:04;;;;;;;;;;;;;;;26.85;37.12;94412.25;4911063;29;9854;-64
2022/05/05 07:28:30;;;;;;;;;;;;;;;26.87;37.19;94412.47;4930999;29;8041;-64
2022/05/05 07:31:05;;;;;;;;;;;;;;;26.86;37.33;94416.53;4917970;29;8865;-64
2022/05/05 07:33:35;;;;;;;;;;;;;;;26.84;37.83;94419.03;4923599;29;7351;-64
2022/05/05 07:36:04;;;;;;;;;;;;;;;26.84;38.08;94413.50;4925936;29;7077;-64
2022/05/05 07:39:04;;;;;;;;;;;;;;;26.85;38.28;94417.78;4923128;29;7212;-64
2022/05/05 07:41:31;;;;;;;;;;;;;;;26.83;37.81;94420.31;4839469;29;7305;-64
2022/05/05 07:44:01;;;;;;;;;;;;;;;26.83;37.76;94414.78;4838573;29;9464;-63
2022/05/05 07:46:28;;;;;;;;;;;;;;;26.82;38.03;94416.78;4845417;29;9603;-64
2022/05/05 07:48:54;;;;;;;;;;;;;;;26.82;37.34;94427.06;4877393;29;7312;-63
2022/05/05 07:51:22;;;;;;;;;;;;;;;26.81;38.10;94431.13;4858737;29;7670;-64
2022/05/05 07:56:53;;;;;;;;;;;;;;;26.74;37.33;94426.91;4875859;29;8410;-64
2022/05/05 07:59:20;;;;;;;;;;;;;;;26.69;36.89;94429.69;4861330;29;7324;-64
2022/05/05 08:01:55;;;;;;;;;;;;;;;26.68;37.29;94434.50;4861288;29;8564;-64
2022/05/05 08:04:22;;;;;;;;;;;;;;;26.63;36.80;94423.50;4872067;29;7329;-64
2022/05/05 08:06:57;;;;;;;;;;;;;;;26.66;37.01;94422.47;4857081;29;9017;-64
2022/05/05 08:09:32;;;;;;;;;;;;;;;26.66;36.84;94425.97;4876443;29;7334;-64
2022/05/05 08:12:00;;;;;;;;;;;;;;;26.65;36.86;94429.25;4875978;29;7306;-64
2022/05/05 08:14:37;;;;;;;;;;;;;;;26.65;37.71;94435.50;4860648;29;8851;-64
2022/05/05 08:17:24;;;;;;;;;;;;;;;26.62;37.70;94439.28;4862894;29;9405;-63
2022/05/05 08:20:11;;;;;;;;;;;;;;;26.65;37.96;94440.28;4899963;29;7225;-63
2022/05/05 08:22:37;;;;;;;;;;;;;;;26.63;37.88;94438.03;4892110;29;8801;-64
2022/05/05 08:30:48;;;;;;;;;;;;;;;26.61;37.59;94440.56;4887268;29;8968;-63
2022/05/05 08:33:17;;;;;;;;;;;;;;;26.60;37.49;94443.84;4922961;28;8316;-63
2022/05/05 08:35:49;;;;;;;;;;;;;;;26.56;37.95;94441.34;4946642;28;7336;-63
2022/05/05 08:38:18;;;;;;;;;;;;;;;26.59;37.11;94445.84;4946319;28;7249;-64
2022/05/05 08:40:47;;;;;;;;;;;;;;;26.56;37.25;94443.38;4936516;28;7516;-64
2022/05/05 08:43:18;;;;;;;;;;;;;;;26.60;38.14;94454.88;4952825;28;7454;-64
2022/05/05 08:45:48;;;;;;;;;;;;;;;26.59;38.12;94451.38;4953383;28;9073;-64
2022/05/05 08:48:17;;;;;;;;;;;;;;;26.58;38.07;94458.13;4964363;28;9259;-63
2022/05/05 08:50:51;;;;;;;;;;;;;;;26.59;38.08;94456.13;4952521;28;9144;-63
2022/05/05 08:53:20;;;;;;;;;;;;;;;26.57;37.87;94458.66;4951658;28;7507;-63
2022/05/05 08:55:46;;;;;;;;;;;;;;;26.58;37.63;94457.38;4952861;28;9019;-63
2022/05/05 08:58:12;;;;;;;;;;;;;;;26.57;38.00;94462.19;4950533;28;8739;-63
2022/05/05 09:00:41;;;;;;;;;;;;;;;26.58;37.20;94457.38;4967632;28;9250;-63
2022/05/05 09:03:37;;;;;;;;;;;;;;;26.57;37.45;94459.41;4949415;28;7000;-63
2022/05/05 09:06:05;;;;;;;;;;;;;;;26.57;37.50;94458.66;4928947;29;7089;-63
2022/05/05 09:08:33;;;;;;;;;;;;;;;26.57;37.49;94455.91;4928596;28;9313;-63
2022/05/05 09:11:08;;;;;;;;;;;;;;;26.55;37.75;94455.69;4928721;29;7243;-63
2022/05/05 09:13:47;;;;;;;;;;;;;;;26.55;38.13;94456.44;4912141;29;7171;-63
2022/05/05 09:16:46;;;;;;;;;;;;;;;26.55;38.15;94461.19;4913936;29;8936;-63
2022/05/05 09:19:14;;;;;;;;;;;;;;;26.53;38.08;94461.72;4925647;29;9110;-63
2022/05/05 09:21:47;;;;;;;;;;;;;;;26.53;37.37;94456.19;4931862;28;8104;-63
2022/05/05 09:27:19;;;;;;;;;;;;;;;26.55;37.84;94461.19;4930820;28;7286;-63
2022/05/05 09:30:12;;;;;;;;;;;;;;;26.52;37.66;94465.72;4925929;29;8040;-63
2022/05/05 09:32:43;;;;;;;;;;;;;;;26.51;38.10;94469.72;4926035;29;9127;-63
2022/05/05 09:35:13;;;;;;;;;;;;;;;26.52;37.80;94476.00;4911324;29;8723;-64
2022/05/05 09:37:59;;;;;;;;;;;;;;;26.48;37.53;94470.03;4924514;29;8775;-64
2022/05/05 09:40:32;;;;;;;;;;;;;;;26.48;37.33;94462.50;4928181;29;7001;-63
2022/05/05 09:43:01;;;;;;;;;;;;;;;26.45;38.22;94466.28;4946118;28;8086;-63
2022/05/05 09:45:33;;;;;;;;;;;;;;;26.45;37.91;94463.53;4964718;28;7586;-63
2022/05/05 09:48:09;;;;;;;;;;;;;;;26.47;38.05;94472.03;4942837;28;7492;-64
2022/05/05 09:50:45;;;;;;;;;;;;;;;26.44;37.48;94475.06;4935991;28;7583;-64
2022/05/05 09:58:52;;;;;;;;;;;;;;;26.47;38.00;94476.81;4947778;28;9090;-63
2022/05/05 10:01:24;;;;;;;;;;;;;;;26.46;38.22;94475.31;4962222;28;9602;-64
2022/05/05 10:04:03;;;;;;;;;;;;;;;26.48;37.94;94470.03;4939367;28;8955;-64
2022/05/05 10:06:40;;;;;;;;;;;;;;;26.46;37.70;94473.31;4934330;28;9017;-64
2022/05/05 10:09:14;;;;;;;;;;;;;;;26.49;37.92;94471.53;4956855;28;8795;-64
2022/05/05 10:11:41;;;;;;;;;;;;;;;26.50;37.99;94473.00;4937915;28;9263;-64
2022/05/05 10:14:09;;;;;;;;;;;;;;;26.49;38.26;94468.78;4958891;28;9272;-64
2022/05/05 10:16:43;;;;;;;;;;;;;;;26.46;38.63;94464.28;4932979;28;7656;-64
2022/05/05 10:19:12;;;;;;;;;;;;;;;26.46;37.67;94461.53;4946598;28;8794;-64
2022/05/05 10:21:54;;;;;;;;;;;;;;;26.44;38.07;94467.56;4954460;28;8690;-63
2022/05/05 10:24:28;;;;;;;;;;;;;;;26.46;39.00;94461.53;4943741;28;8711;-63
2022/05/05 10:27:00;;;;;;;;;;;;;;;26.45;38.32;94465.53;4956275;28;9177;-63
2022/05/05 10:29:41;;;;;;;;;;;;;;;26.44;39.06;94464.03;4936010;28;9240;-63
2022/05/05 10:32:18;;;;;;;;;;;;;;;26.46;39.14;94467.03;4939629;29;7110;-63
2022/05/05 10:34:46;;;;;;;;;;;;;;;26.42;39.69;94461.81;4961916;28;7080;-63
2022/05/05 10:37:31;;;;;;;;;;;;;;;26.43;39.07;94462.53;4948938;28;7457;-63
2022/05/05 10:40:07;;;;;;;;;;;;;;;26.45;39.59;94462.78;4930509;29;7142;-63
2022/05/05 10:42:44;;;;;;;;;;;;;;;26.46;39.52;94458.75;4949166;28;7392;-63
2022/05/05 10:45:14;;;;;;;;;;;;;;;26.45;38.92;94444.22;4949025;28;7179;-63
2022/05/05 10:47:55;;;;;;;;;;;;;;;26.47;39.47;94443.72;4955376;28;7526;-63
2022/05/05 10:50:59;;;;;;;;;;;;;;;26.47;39.15;94449.25;4943247;28;8907;-63
2022/05/05 10:53:41;;;;;;;;;;;;;;;26.47;39.99;94446.47;4950040;28;7013;-63
2022/05/05 10:56:31;;;;;;;;;;;;;;;26.43;39.20;94438.47;4951856;28;9107;-63
2022/05/05 10:59:09;;;;;;;;;;;;;;;26.44;39.26;94441.97;4966462;28;7230;-63
2022/05/05 11:01:42;;;;;;;;;;;;;;;26.49;39.06;94435.69;4952456;28;6998;-63
2022/05/05 11:04:15;;;;;;;;;;;;;;;26.51;39.91;94438.66;4949456;28;9489;-63
2022/05/05 11:06:42;;;;;;;;;;;;;;;26.48;39.28;94439.69;4946301;28;7283;-63
2022/05/05 11:09:27;;;;;;;;;;;;;;;26.50;39.13;94435.16;4947588;28;7433;-63
2022/05/05 11:12:22;;;;;;;;;;;;;;;26.50;39.19;94439.91;4946453;28;7324;-63
2022/05/05 11:23:50;;;;;;;;;;;;;;;26.46;39.98;94439.44;4914285;29;7039;-63
2022/05/05 11:26:20;;;;;;;;;;;;;;;26.46;39.69;94433.94;4901957;29;7277;-63
2022/05/05 11:29:15;;;;;;;;;;;;;;;26.43;39.87;94426.69;4899304;29;7537;-63
2022/05/05 11:32:05;;;;;;;;;;;;;;;26.43;39.93;94432.97;4899244;29;9033;-63
2022/05/05 11:34:47;;;;;;;;;;;;;;;26.41;39.82;94431.97;4913228;29;7026;-63
2022/05/05 11:37:14;;;;;;;;;;;;;;;26.43;40.23;94437.72;4911628;29;9120;-63
2022/05/05 11:40:00;;;;;;;;;;;;;;;26.43;39.76;94429.44;4897793;29;8823;-64
2022/05/05 11:42:28;;;;;;;;;;;;;;;26.39;39.95;94420.72;4899765;29;7284;-63
2022/05/05 11:44:56;;;;;;;;;;;;;;;26.42;39.93;94428.72;4908632;29;7202;-64
2022/05/05 11:47:25;;;;;;;;;;;;;;;26.36;40.19;94432.78;4910433;29;9128;-63
2022/05/05 11:49:59;;;;;;;;;;;;;;;26.44;39.86;94425.44;4891489;29;9375;-63
2022/05/05 11:52:42;;;;;;;;;;;;;;;26.65;39.55;94426.47;4900337;28;6979;-65
2022/05/05 11:55:13;;;;;;;;;;;;;;;26.74;39.06;94428.94;4954873;28;9052;-63
2022/05/05 11:57:47;;;;;;;;;;;;;;;26.83;38.54;94423.06;4952860;28;9262;-63
2022/05/05 12:03:04;;;;;;;;;;;;;;;26.84;38.81;94419.03;4952686;28;7291;-63
2022/05/05 12:05:34;;;;;;;;;;;;;;;26.79;38.36;94414.34;4949338;28;9062;-64
2022/05/05 12:08:00;;;;;;;;;;;;;;;26.75;38.78;94413.88;4960865;28;9477;-64
2022/05/05 12:10:39;;;;;;;;;;;;;;;26.75;38.98;94405.59;4965712;28;9521;-64
2022/05/05 12:13:06;;;;;;;;;;;;;;;26.77;38.85;94411.34;4945710;28;9645;-63
2022/05/05 12:15:35;;;;;;;;;;;;;;;26.79;39.19;94406.06;4944123;28;9564;-64
2022/05/05 12:18:04;;;;;;;;;;;;;;;26.78;39.32;94404.53;4951985;28;9131;-63
2022/05/05 12:20:31;;;;;;;;;;;;;;;26.76;38.96;94407.06;4946134;28;9322;-63
2022/05/05 12:23:01;;;;;;;;;;;;;;;26.74;39.19;94415.13;4967919;28;9055;-63
2022/05/05 12:25:29;;;;;;;;;;;;;;;26.72;38.53;94414.88;4953045;28;7169;-64
2022/05/05 12:28:09;;;;;;;;;;;;;;;26.66;38.56;94403.16;4953300;28;7101;-64
2022/05/05 12:31:19;;;;;;;;;;;;;;;26.66;39.20;94408.66;4964267;28;9267;-64
2022/05/05 12:33:48;;;;;;;;;;;;;;;26.63;39.58;94398.66;4952483;28;7358;-63
2022/05/05 12:36:14;;;;;;;;;;;;;;;26.59;38.71;94395.44;4951623;28;7530;-63
2022/05/05 12:38:50;;;;;;;;;;;;;;;26.61;38.66;94407.47;4953081;28;6934;-64
2022/05/05 12:41:16;;;;;;;;;;;;;;;26.60;39.71;94403.19;4953080;28;8993;-64
2022/05/05 12:43:42;;;;;;;;;;;;;;;26.58;39.13;94402.22;4946922;28;9106;-64
2022/05/05 12:46:10;;;;;;;;;;;;;;;26.56;39.53;94402.75;4963092;28;7039;-63
2022/05/05 12:48:39;;;;;;;;;;;;;;;26.54;39.62;94399.00;4939471;28;9511;-63
2022/05/05 12:51:30;;;;;;;;;;;;;;;26.54;39.07;94396.25;4965367;28;9041;-63
2022/05/05 12:59:48;;;;;;;;;;;;;;;26.50;39.97;94396.53;4951165;28;9099;-63
2022/05/05 13:02:23;;;;;;;;;;;;;;;26.52;39.67;94405.03;4946861;28;8733;-63
2022/05/05 13:05:05;;;;;;;;;;;;;;;26.48;39.70;94406.59;4939083;28;7270;-63
2022/05/05 13:07:41;;;;;;;;;;;;;;;26.47;39.55;94414.09;4950919;28;7217;-63
2022/05/05 13:10:17;;;;;;;;;;;;;;;26.44;39.87;94412.41;4947655;28;7229;-63
2022/05/05 13:12:46;;;;;;;;;;;;;;;26.46;39.22;94411.88;4950633;28;7191;-63
2022/05/05 13:15:24;;;;;;;;;;;;;;;26.43;39.48;94408.13;4968241;28;9014;-63
2022/05/05 13:17:58;;;;;;;;;;;;;;;26.44;40.21;94404.13;4964527;28;8748;-64
2022/05/05 13:20:30;;;;;;;;;;;;;;;26.45;39.21;94404.84;4946292;28;6865;-63
2022/05/05 13:22:56;;;;;;;;;;;;;;;26.43;39.55;94407.38;4966403;28;8052;-64
2022/05/05 13:25:24;;;;;;;;;;;;;;;26.41;39.83;94399.63;4951194;28;9077;-64
2022/05/05 13:28:11;;;;;;;;;;;;;;;26.43;39.41;94401.88;4934059;28;8930;-63
2022/05/05 13:30:45;;;;;;;;;;;;;;;26.44;39.69;94401.38;4968103;28;7292;-63
2022/05/05 13:33:11;;;;;;;;;;;;;;;26.44;39.96;94400.63;4954320;28;6970;-63
2022/05/05 13:35:40;;;;;;;;;;;;;;;26.39;39.08;94402.16;4953395;28;7431;-63
2022/05/05 13:38:06;;;;;;;;;;;;;;;26.41;39.14;94401.63;4966501;28;9753;-63
2022/05/05 13:40:32;;;;;;;;;;;;;;;26.41;39.35;94398.88;4948563;28;7123;-64
2022/05/05 13:43:04;;;;;;;;;;;;;;;26.40;39.87;94403.66;4940746;28;6992;-64
2022/05/05 13:45:32;;;;;;;;;;;;;;;26.41;39.42;94405.16;4949436;28;7442;-64
2022/05/05 13:47:58;;;;;;;;;;;;;;;26.37;40.12;94404.69;4946154;28;9204;-63
2022/05/05 13:50:27;;;;;;;;;;;;;;;26.38;39.17;94406.16;4947836;28;7224;-63
2022/05/05 13:52:55;;;;;;;;;;;;;;;26.37;39.67;94404.69;4948190;28;9027;-63
2022/05/05 13:55:21;;;;;;;;;;;;;;;26.36;39.95;94402.44;4939132;28;9069;-64
2022/05/05 13:57:52;;;;;;;;;;;;;;;26.35;39.47;94395.44;4946801;28;7257;-64
2022/05/05 14:00:24;;;;;;;;;;;;;;;26.35;39.58;94395.44;4964928;28;8843;-63
2022/05/05 14:02:52;;;;;;;;;;;;;;;26.32;39.35;94393.72;4936596;28;7248;-63
2022/05/05 14:05:20;;;;;;;;;;;;;;;26.37;39.96;94404.69;4940308;28;7417;-63
2022/05/05 14:13:16;;;;;;;;;;;;;;;26.32;39.38;94402.72;4944242;28;7067;-64
2022/05/05 14:15:44;;;;;;;;;;;;;;;26.30;40.11;94404.50;4946237;28;9014;-63
2022/05/05 14:18:13;;;;;;;;;;;;;;;26.31;39.28;94403.25;4942310;28;6998;-63
2022/05/05 14:20:39;;;;;;;;;;;;;;;26.33;39.24;94409.75;4941617;28;9078;-63
2022/05/05 14:23:08;;;;;;;;;;;;;;;26.32;39.66;94408.22;4946425;28;7248;-63
2022/05/05 14:25:36;;;;;;;;;;;;;;;26.36;39.96;94414.22;4924779;28;7176;-63